Flight Track Log - Related Links

Times and Time Zones

All times are in EDT time to prevent confusion due to time zone crossing. See the TGW436 flight status page for this flight to view local times or setup timezone preferences in your user account.

Time Position Orientation Groundspeed Altitude Reporting Facility
EDT Latitude Longitude Course Direction KTS MPH feet Rate Location/Type
Wed 07:17:44 PM -37.6600 144.8135 271° West 149 171 1,300  Level Aus ATC (RADAR)
Wed 07:17:52 PM -37.6600 144.8080 274° West 142 163 1,900 3,000 Climbing FlightAware ADS-B
Wed 07:18:12 PM -37.6590 144.7930 275° West 139 160 2,700 1,543 Climbing FlightAware ADS-B
Wed 07:18:27 PM -37.6580 144.7820 277° West 153 176 2,800 1,024 Climbing FlightAware ADS-B
Wed 07:18:53 PM -37.6560 144.7500 275° West 198 228 3,400 1,304 Climbing FlightAware ADS-B
Wed 07:19:13 PM -37.6550 144.7260 273° West 228 262 3,800 1,902 Climbing FlightAware ADS-B
Wed 07:19:34 PM -37.6510 144.7000 281° West 246 283 4,700 2,800 Climbing FlightAware ADS-B
Wed 07:19:43 PM -37.6440 144.6860 302° West 253 291 5,200 3,429 Climbing FlightAware ADS-B
Wed 07:19:48 PM -37.6400 144.6830 329° Northwest 257 296 5,500 3,462 Climbing FlightAware ADS-B
Wed 07:20:09 PM -37.6200 144.6660 326° Northwest 260 299 6,700 3,300 Climbing FlightAware ADS-B
Wed 07:20:28 PM -37.6010 144.6500 326° Northwest 268 308 7,700 3,176 Climbing FlightAware ADS-B
Wed 07:20:43 PM -37.5840 144.6360 327° Northwest 271 312 8,500 2,914 Climbing FlightAware ADS-B
Wed 07:21:03 PM -37.5620 144.6170 326° Northwest 277 319 9,400 2,300 Climbing FlightAware ADS-B
Wed 07:21:43 PM -37.5180 144.5800 326° Northwest 303 349 10,800 1,714 Climbing FlightAware ADS-B
Wed 07:22:13 PM -37.4810 144.5480 326° Northwest 335 386 11,400 1,727 Climbing FlightAware ADS-B
Wed 07:22:49 PM -37.4340 144.5090 327° Northwest 348 400 12,700 2,366 Climbing FlightAware ADS-B
Wed 07:23:24 PM -37.3860 144.4680 326° Northwest 356 410 14,200 2,314 Climbing FlightAware ADS-B
Wed 07:23:59 PM -37.3370 144.4260 326° Northwest 367 422 15,400 2,143 Climbing FlightAware ADS-B
Wed 07:24:34 PM -37.2900 144.3800 322° Northwest 371 427 16,700 2,160 Climbing FlightAware ADS-B
Wed 07:25:14 PM -37.2380 144.3270 321° Northwest 383 441 18,100 1,920 Climbing FlightAware ADS-B
Wed 07:25:49 PM -37.1850 144.2750 322° Northwest 394 453 19,100 1,971 Climbing FlightAware ADS-B
Wed 07:26:24 PM -37.1360 144.2270 322° Northwest 397 457 20,400 1,971 Climbing FlightAware ADS-B
Wed 07:26:59 PM -37.0850 144.1780 323° Northwest 402 463 21,400 1,600 Climbing FlightAware ADS-B
Wed 07:27:39 PM -37.0250 144.1200 322° Northwest 408 470 22,400 1,583 Climbing FlightAware ADS-B
Wed 07:28:11 PM -36.9820 144.0780 322° Northwest 410 472 23,300 1,629 Climbing FlightAware ADS-B
Wed 07:28:49 PM -36.9190 144.0180 323° Northwest 415 478 24,300 1,397 Climbing FlightAware ADS-B
Wed 07:29:24 PM -36.8670 143.9670 322° Northwest 422 486 25,000 1,292 Climbing FlightAware ADS-B
Wed 07:29:54 PM -36.8200 143.9230 323° Northwest 427 491 25,700 1,200 Climbing FlightAware ADS-B
Wed 07:30:34 PM -36.7560 143.8620 323° Northwest 437 503 26,400 1,120 Climbing FlightAware ADS-B
Wed 07:31:09 PM -36.7000 143.8080 322° Northwest 440 506 27,100 1,200 Climbing FlightAware ADS-B
Wed 07:31:39 PM -36.6510 143.7610 322° Northwest 445 512 27,700 1,031 Climbing FlightAware ADS-B
Wed 07:32:13 PM -36.5944 143.7067 322° Northwest 443 510 28,200 1,050 Climbing Aus ATC (RADAR)
Wed 07:32:19 PM -36.5840 143.6970 322° Northwest 450 518 28,400 1,024 Climbing FlightAware ADS-B
Wed 07:32:54 PM -36.5260 143.6420 323° Northwest 456 525 28,900 831 Climbing FlightAware ADS-B
Wed 07:33:24 PM -36.4760 143.5940 322° Northwest 464 534 29,300 646 Climbing FlightAware ADS-B
Wed 07:33:59 PM -36.4170 143.5390 323° Northwest 473 544 29,600 1,059 Climbing FlightAware ADS-B
Wed 07:34:32 PM -36.3562 143.4818 323° Northwest 467 537 30,500 1,800 Climbing Aus ATC (RADAR)
Wed 07:34:39 PM -36.3460 143.4710 323° Northwest 463 533 30,800 1,297 Climbing FlightAware ADS-B
Wed 07:35:09 PM -36.2960 143.4240 323° Northwest 463 533 31,300 1,108 Climbing FlightAware ADS-B
Wed 07:35:44 PM -36.2360 143.3670 323° Northwest 460 529 32,000 1,543 Climbing FlightAware ADS-B
Wed 07:36:19 PM -36.1760 143.3110 323° Northwest 450 518 33,100 1,676 Climbing FlightAware ADS-B
Wed 07:36:52 PM -36.1214 143.2608 323° Northwest 438 504 33,900 1,350 Climbing Aus ATC (RADAR)
Wed 07:36:59 PM -36.1120 143.2510 323° Northwest 438 504 34,000 162 Climbing FlightAware ADS-B
Wed 07:37:29 PM -36.0630 143.2050 323° Northwest 437 503 34,000  Level FlightAware ADS-B
Wed 07:38:04 PM -36.0080 143.1530 323° Northwest 438 504 34,000  Level FlightAware ADS-B
Wed 07:38:39 PM -35.9500 143.0990 323° Northwest 444 511 34,000  Level FlightAware ADS-B
Wed 07:39:14 PM -35.8930 143.0470 324° Northwest 445 512 34,000  Level FlightAware ADS-B
Wed 07:39:54 PM -35.8270 142.9850 323° Northwest 446 513 34,000  Level FlightAware ADS-B
Wed 07:40:29 PM -35.7720 142.9340 323° Northwest 448 516 34,000  Level FlightAware ADS-B
Wed 07:40:59 PM -35.7220 142.8880 323° Northwest 447 514 34,000  Level FlightAware ADS-B
Wed 07:41:34 PM -35.6640 142.8350 323° Northwest 445 512 34,000  Level FlightAware ADS-B
Wed 07:42:09 PM -35.6050 142.7800 323° Northwest 444 511 34,000  Level FlightAware ADS-B
Wed 07:42:49 PM -35.5370 142.7170 323° Northwest 443 510 34,000  Level FlightAware ADS-B
Wed 07:43:25 PM -35.4790 142.6640 323° Northwest 442 509 34,000  Level FlightAware ADS-B
Wed 07:43:55 PM -35.4310 142.6200 323° Northwest 442 509 34,000 -97 Level FlightAware ADS-B
Wed 07:44:27 PM -35.3780 142.5703 323° Northwest 438 504 33,900  Descending Aus ATC (RADAR)
Wed 07:44:30 PM -35.3730 142.5670 323° Northwest 441 507 34,000 154 Climbing FlightAware ADS-B
Wed 07:45:06 PM -35.3150 142.5140 323° Northwest 442 509 34,000  Level FlightAware ADS-B
Wed 07:45:40 PM -35.2590 142.4620 323° Northwest 443 510 34,000  Level FlightAware ADS-B
Wed 07:46:15 PM -35.2010 142.4090 323° Northwest 445 512 34,000  Level FlightAware ADS-B
Wed 07:46:50 PM -35.1440 142.3570 323° Northwest 445 512 34,000 90 Level FlightAware ADS-B
Wed 07:47:22 PM -35.0901 142.3090 323° Northwest 443 510 34,100  Climbing Aus ATC (RADAR)
Wed 07:47:25 PM -35.0880 142.3070 323° Northwest 445 512 34,000  Descending FlightAware ADS-B
Wed 07:48:07 PM -35.0161 142.2417 323° Northwest 441 507 34,100  Climbing Aus ATC (RADAR)
Wed 07:48:10 PM -35.0120 142.2380 323° Northwest 444 511 34,000 -154 Descending FlightAware ADS-B
Wed 07:48:46 PM -34.9530 142.1850 324° Northwest 444 511 34,000  Level FlightAware ADS-B
Wed 07:49:15 PM -34.9050 142.1410 323° Northwest 444 511 34,000  Level FlightAware ADS-B
Wed 07:50:01 PM -34.8350 142.0790 324° Northwest 444 511 34,000  Level FlightAware ADS-B
Wed 07:50:38 PM -34.7670 142.0170 323° Northwest 445 512 34,000  Level FlightAware ADS-B
Wed 07:51:13 PM -34.7110 141.9660 323° Northwest 445 512 34,000  Level FlightAware ADS-B
Wed 07:51:47 PM -34.6540 141.9160 324° Northwest 444 511 34,000  Level FlightAware ADS-B
Wed 07:52:22 PM -34.5960 141.8640 324° Northwest 444 511 34,000  Level FlightAware ADS-B
Wed 07:52:52 PM -34.5470 141.8210 324° Northwest 444 511 34,000 92 Level FlightAware ADS-B
Wed 07:53:27 PM -34.4879 141.7677 324° Northwest 442 509 34,100  Climbing Aus ATC (RADAR)
Wed 07:53:32 PM -34.4850 141.7650 324° Northwest 444 511 34,000 -133 Descending FlightAware ADS-B
Wed 07:54:12 PM -34.4130 141.7010 324° Northwest 443 510 34,000  Level FlightAware ADS-B
Wed 07:54:47 PM -34.3600 141.6540 324° Northwest 442 509 34,000 87 Level FlightAware ADS-B
Wed 07:55:21 PM -34.2985 141.5994 324° Northwest 439 505 34,100  Climbing Aus ATC (RADAR)
Wed 07:55:23 PM -34.2980 141.5990 324° Northwest 441 507 34,000  Descending FlightAware ADS-B
Wed 07:55:56 PM -34.2410 141.5486 324° Northwest 438 504 34,100  Climbing Aus ATC (RADAR)
Wed 07:55:57 PM -34.2390 141.5470 324° Northwest 439 505 34,000 -162 Descending FlightAware ADS-B
Wed 07:56:33 PM -34.1850 141.4990 324° Northwest 439 505 34,000  Level FlightAware ADS-B
Wed 07:57:07 PM -34.1250 141.4460 324° Northwest 439 505 34,000  Level FlightAware ADS-B
Wed 07:57:42 PM -34.0700 141.3980 324° Northwest 441 507 34,000 87 Level FlightAware ADS-B
Wed 07:58:16 PM -34.0103 141.3458 324° Northwest 445 512 34,100  Climbing Aus ATC (RADAR)
Wed 07:58:17 PM -34.0090 141.3440 324° Northwest 441 507 34,000 -162 Descending FlightAware ADS-B
Wed 07:58:53 PM -33.9540 141.2960 324° Northwest 444 511 34,000  Level FlightAware ADS-B
Wed 07:59:27 PM -33.8940 141.2430 324° Northwest 445 512 34,000  Level FlightAware ADS-B
Wed 08:00:02 PM -33.8370 141.1930 324° Northwest 444 511 34,000  Level FlightAware ADS-B
Wed 08:00:39 PM -33.7750 141.1390 324° Northwest 445 512 34,000  Level FlightAware ADS-B
Wed 08:01:19 PM -33.7160 141.0880 324° Northwest 445 512 34,000  Level FlightAware ADS-B
Wed 08:01:54 PM -33.6540 141.0340 324° Northwest 448 516 34,000  Level FlightAware ADS-B
Wed 08:02:29 PM -33.5890 140.9770 324° Northwest 448 516 34,000  Level FlightAware ADS-B
Wed 08:03:14 PM -33.5170 140.9130 323° Northwest 447 514 34,000  Level FlightAware ADS-B
Wed 08:03:45 PM -33.4670 140.8690 323° Northwest 445 512 34,000 375 Level FlightAware ADS-B
Wed 08:03:46 PM -33.4626 140.8651 323° Northwest 444 511 34,200  Climbing Aus ATC (RADAR)
Wed 08:04:19 PM -33.4090 140.8180 324° Northwest 442 509 34,000 -176 Descending FlightAware ADS-B
Wed 08:04:54 PM -33.3520 140.7670 323° Northwest 440 506 34,000  Level FlightAware ADS-B
Wed 08:05:35 PM -33.2870 140.7100 324° Northwest 436 502 34,000  Level FlightAware ADS-B
Wed 08:06:05 PM -33.2400 140.6690 324° Northwest 435 501 34,000  Level FlightAware ADS-B
Wed 08:06:39 PM -33.1810 140.6170 324° Northwest 433 498 34,000 -87 Level FlightAware ADS-B
Wed 08:07:14 PM -33.1280 140.5700 323° Northwest 435 501 33,900  Descending FlightAware ADS-B
Wed 08:07:50 PM -33.0660 140.5160 324° Northwest 435 501 34,000 86 Climbing FlightAware ADS-B
Wed 08:08:24 PM -33.0110 140.4680 324° Northwest 436 502 34,000  Level FlightAware ADS-B
Wed 08:09:14 PM -32.9350 140.4010 323° Northwest 434 499 34,000  Level FlightAware ADS-B
Wed 08:09:49 PM -32.8730 140.3470 324° Northwest 434 499 34,000  Level FlightAware ADS-B
Wed 08:10:28 PM -32.8170 140.2990 324° Northwest 432 497 34,000 85 Level FlightAware ADS-B
Wed 08:11:00 PM -32.7572 140.2470 324° Northwest 432 497 34,100  Climbing Aus ATC (RADAR)
Wed 08:11:14 PM -32.7400 140.2320 324° Northwest 431 496 34,000  Descending FlightAware ADS-B
Wed 08:11:45 PM -32.6847 140.1848 324° Northwest 431 496 34,100  Climbing Aus ATC (RADAR)
Wed 08:11:52 PM -32.6740 140.1750 324° Northwest 427 491 34,000 -162 Descending FlightAware ADS-B
Wed 08:12:22 PM -32.6290 140.1360 324° Northwest 436 502 34,000 182 Level FlightAware ADS-B
Wed 08:12:25 PM -32.6202 140.1287 324° Northwest 432 497 34,100  Climbing Aus ATC (RADAR)
Wed 08:12:57 PM -32.5720 140.0870 324° Northwest 439 505 34,000  Descending FlightAware ADS-B
Wed 08:13:35 PM -32.5044 140.0295 324° Northwest 438 504 34,100  Climbing Aus ATC (RADAR)
Wed 08:13:42 PM -32.4950 140.0200 324° Northwest 443 510 34,000 -158 Descending FlightAware ADS-B
Wed 08:14:13 PM -32.4440 139.9770 325° Northwest 438 504 34,000 83 Level FlightAware ADS-B
Wed 08:14:54 PM -32.3780 139.9200 324° Northwest 445 512 34,100  Climbing FlightAware ADS-B
Wed 08:15:23 PM -32.3260 139.8750 324° Northwest 445 512 34,000 85 Descending FlightAware ADS-B
Wed 08:16:05 PM -32.2547 139.8150 324° Northwest 444 511 34,200  Climbing Aus ATC (RADAR)
Wed 08:16:18 PM -32.2360 139.7980 324° Northwest 436 502 34,000  Descending FlightAware ADS-B
Wed 08:16:50 PM -32.1800 139.7505 324° Northwest 445 512 34,200  Climbing Aus ATC (RADAR)
Wed 08:16:53 PM -32.1790 139.7500 324° Northwest 443 510 34,000  Descending FlightAware ADS-B
Wed 08:17:30 PM -32.1135 139.6932 324° Northwest 444 511 34,200  Climbing Aus ATC (RADAR)
Wed 08:17:48 PM -32.0900 139.6730 324° Northwest 436 502 34,000 -226 Descending FlightAware ADS-B
Wed 08:18:23 PM -32.0290 139.6220 325° Northwest 445 512 34,000  Level FlightAware ADS-B
Wed 08:19:09 PM -31.9610 139.5640 324° Northwest 445 512 34,000 146 Level FlightAware ADS-B
Wed 08:19:45 PM -31.8890 139.5042 324° Northwest 443 510 34,200  Climbing Aus ATC (RADAR)
Wed 08:19:54 PM -31.8900 139.5040 324° Northwest 443 510 34,000 -267 Descending FlightAware ADS-B
Wed 08:20:30 PM -31.8390 139.4610 324° Northwest 443 510 34,000  Level FlightAware ADS-B
Wed 08:21:06 PM -31.7890 139.4170 323° Northwest 443 510 34,000  Level FlightAware ADS-B
Wed 08:21:42 PM -31.7380 139.3740 324° Northwest 443 510 34,000  Level FlightAware ADS-B
Wed 08:22:16 PM -31.6520 139.3030 325° Northwest 438 504 34,000  Level FlightAware ADS-B
Wed 08:22:54 PM -31.5990 139.2580 324° Northwest 438 504 34,000 162 Level FlightAware ADS-B
Wed 08:23:30 PM -31.5184 139.1922 324° Northwest 439 505 34,200  Climbing Aus ATC (RADAR)
Wed 08:23:30 PM -31.5490 139.2160 324° Northwest 438 504 34,000 -333 Descending FlightAware ADS-B
Wed 08:24:06 PM -31.4990 139.1730 324° Northwest 438 504 34,000  Level FlightAware ADS-B
Wed 08:24:42 PM -31.4480 139.1300 324° Northwest 438 504 34,000  Level FlightAware ADS-B
Wed 08:25:18 PM -31.3980 139.0870 324° Northwest 438 504 34,000  Level FlightAware ADS-B
Wed 08:25:54 PM -31.3480 139.0450 324° Northwest 438 504 34,000  Level FlightAware ADS-B
Wed 08:26:31 PM -31.2970 139.0010 324° Northwest 438 504 34,000 171 Level FlightAware ADS-B
Wed 08:27:04 PM -31.1645 138.8984 324° Northwest 437 503 34,200  Climbing Aus ATC (RADAR)
Wed 08:27:07 PM -31.2460 138.9580 324° Northwest 438 504 34,000  Descending FlightAware ADS-B
Wed 08:27:44 PM -31.0982 138.8456 324° Northwest 437 503 34,200  Climbing Aus ATC (RADAR)
Wed 08:27:44 PM -31.1950 138.9140 324° Northwest 438 504 34,000 -333 Descending FlightAware ADS-B
Wed 08:28:20 PM -31.1450 138.8720 324° Northwest 438 504 34,000  Level FlightAware ADS-B
Wed 08:28:56 PM -31.0940 138.8290 324° Northwest 438 504 34,000  Level FlightAware ADS-B
Wed 08:29:32 PM -31.0440 138.7870 324° Northwest 438 504 34,000  Level FlightAware ADS-B
Wed 08:30:08 PM -30.9940 138.7440 324° Northwest 438 504 34,000 179 Level FlightAware ADS-B
Wed 08:30:39 PM -30.8076 138.6052 324° Northwest 440 506 34,200  Climbing Aus ATC (RADAR)
Wed 08:30:45 PM -30.9430 138.7000 324° Northwest 438 504 34,000 -255 Descending FlightAware ADS-B
Wed 08:31:26 PM -31.8690 139.4840 144° Southeast 436 502 34,000  Level FlightAware ADS-B
Wed 08:32:02 PM -31.8190 139.4410 324° Northwest 436 502 34,000  Level FlightAware ADS-B
Wed 08:32:39 PM -31.7690 139.3960 323° Northwest 436 502 34,000  Level FlightAware ADS-B
Wed 08:32:54 PM -30.5511 138.4161 146° Southeast 34,000  Level Aus ATC (Calculated)
Wed 08:33:16 PM -31.7180 139.3510 323° Northwest 436 502 34,000  Level FlightAware ADS-B
Wed 08:34:02 PM -31.6550 139.2950 323° Northwest 436 502 34,000  Level FlightAware ADS-B
Wed 08:34:38 PM -31.6060 139.2510 323° Northwest 436 502 34,000  Level FlightAware ADS-B
Wed 08:35:14 PM -31.5570 139.2080 323° Northwest 436 502 34,000  Level FlightAware ADS-B
Wed 08:35:50 PM -31.5070 139.1640 323° Northwest 436 502 34,000  Level FlightAware ADS-B
Wed 08:36:26 PM -31.4580 139.1210 323° Northwest 436 502 34,000  Level FlightAware ADS-B
Wed 08:37:02 PM -31.4090 139.0770 323° Northwest 436 502 34,000  Level FlightAware ADS-B
Wed 08:37:38 PM -31.3590 139.0340 324° Northwest 436 502 34,000  Level FlightAware ADS-B
Wed 08:37:49 PM -30.0431 138.0475 148° Southeast 34,000  Level Aus ATC (Calculated)
Wed 08:38:14 PM -31.3100 138.9900 323° Northwest 436 502 34,000  Level FlightAware ADS-B
Wed 08:38:51 PM -31.2590 138.9450 323° Northwest 436 502 34,000  Level FlightAware ADS-B
Wed 08:39:27 PM -31.2100 138.9020 323° Northwest 436 502 34,000  Level FlightAware ADS-B
Wed 08:40:03 PM -31.1610 138.8590 323° Northwest 436 502 34,000  Level FlightAware ADS-B
Wed 08:40:39 PM -31.1110 138.8150 323° Northwest 436 502 34,000  Level FlightAware ADS-B
Wed 08:43:00 PM -30.8824 138.6486 328° Northwest  Level Estimated
Wed 08:44:00 PM -30.7850 138.5781 328° Northwest  Level Estimated
Wed 08:45:00 PM -30.6876 138.5076 328° Northwest  Level Estimated
Wed 08:46:00 PM -30.5902 138.4374 328° Northwest  Level Estimated
Wed 08:47:00 PM -30.4927 138.3672 328° Northwest  Level Estimated
Wed 08:47:54 PM -28.9623 137.2781 329° Northwest 34,000  Level Aus ATC (Calculated)
Wed 08:48:00 PM -30.3952 138.2973 328° Northwest  Level Estimated
Wed 08:48:48 PM -28.8697 137.2130 329° Northwest 34,000  Level Aus ATC (Calculated)
Wed 08:49:00 PM -28.8544 137.2035 329° Northwest  Level Estimated
Wed 08:49:19 PM -28.7886 137.1562 329° Northwest 34,000  Level Aus ATC (Calculated)
Wed 08:50:48 PM -28.6466 137.0569 329° Northwest 34,000  Level Aus ATC (Calculated)
Wed 08:51:00 PM -28.6232 137.0426 329° Northwest  Level Estimated
Wed 08:52:00 PM -28.5287 136.9762 329° Northwest  Level Estimated
Wed 08:52:48 PM -28.4335 136.9085 329° Northwest 34,000  Level Aus ATC (Calculated)
Wed 08:53:00 PM -28.4303 136.9091 329° Northwest  Level Estimated
Wed 08:54:00 PM -28.3154 136.8282 329° Northwest  Level Estimated
Wed 08:55:00 PM -28.2170 136.7614 329° Northwest  Level Estimated
Wed 08:55:47 PM -28.1243 136.6955 329° Northwest 34,000  Level Aus ATC (Calculated)
Wed 08:56:00 PM -28.1185 136.6947 329° Northwest  Level Estimated
Wed 08:57:00 PM -28.0201 136.6281 329° Northwest  Level Estimated
Wed 08:58:00 PM -27.9216 136.5616 329° Northwest  Level Estimated
Wed 08:59:00 PM -27.8230 136.4953 329° Northwest  Level Estimated
Wed 09:00:00 PM -27.7244 136.4291 329° Northwest  Level Estimated
Wed 09:01:00 PM -27.6101 136.3497 329° Northwest  Level Estimated
Wed 09:02:00 PM -27.5114 136.2838 329° Northwest  Level Estimated
Wed 09:03:00 PM -27.4127 136.2180 329° Northwest  Level Estimated
Wed 09:03:46 PM -27.3563 136.1772 329° Northwest 34,000  Level Aus ATC (Calculated)
Wed 09:04:00 PM -27.3140 136.1524 329° Northwest  Level Estimated
Wed 09:05:00 PM -27.2345 136.0964 329° Northwest  Level Estimated
Wed 09:06:00 PM -27.1357 136.0310 330° Northwest  Level Estimated
Wed 09:07:00 PM -27.0368 135.9657 330° Northwest  Level Estimated
Wed 09:08:00 PM -26.9379 135.9006 330° Northwest  Level Estimated
Wed 09:08:46 PM -26.8753 135.8569 329° Northwest 34,000  Level Aus ATC (Calculated)
Wed 09:09:00 PM -26.8390 135.8355 330° Northwest  Level Estimated
Wed 09:10:00 PM -26.7400 135.7706 330° Northwest  Level Estimated
Wed 09:11:00 PM -26.6411 135.7058 330° Northwest  Level Estimated
Wed 09:12:00 PM -26.5421 135.6411 330° Northwest  Level Estimated
Wed 09:12:06 PM -26.5950 135.6710 330° Northwest 399 459 34,000  Level FlightAware ADS-B
Wed 09:12:44 PM -26.5340 135.6310 330° Northwest 398 458 34,000  Level FlightAware ADS-B
Wed 09:13:17 PM -26.4820 135.5970 330° Northwest 397 457 34,000  Level FlightAware ADS-B
Wed 09:13:54 PM -26.4230 135.5590 330° Northwest 398 458 34,000  Level FlightAware ADS-B
Wed 09:14:26 PM -26.3720 135.5250 329° Northwest 398 458 34,000  Level FlightAware ADS-B
Wed 09:15:06 PM -26.3090 135.4840 330° Northwest 399 459 34,000  Level FlightAware ADS-B
Wed 09:15:38 PM -26.2570 135.4500 330° Northwest 398 458 34,000  Level FlightAware ADS-B
Wed 09:16:10 PM -26.1971 135.4106 149° Southeast 26,500  Descending Aus ATC (Calculated)
Wed 09:16:14 PM -26.2020 135.4140 330° Northwest 399 459 34,000 11,842 Climbing FlightAware ADS-B
Wed 09:16:48 PM -26.1460 135.3770 329° Northwest 399 459 34,000  Level FlightAware ADS-B
Wed 09:17:24 PM -26.0890 135.3400 329° Northwest 399 459 34,000  Level FlightAware ADS-B
Wed 09:17:58 PM -26.0340 135.3040 330° Northwest 400 460 34,000  Level FlightAware ADS-B
Wed 09:18:32 PM -25.9800 135.2690 330° Northwest 400 460 34,000  Level FlightAware ADS-B
Wed 09:19:12 PM -25.9170 135.2280 330° Northwest 401 461 34,000  Level FlightAware ADS-B
Wed 09:19:44 PM -25.8640 135.1940 330° Northwest 401 461 34,000  Level FlightAware ADS-B
Wed 09:20:20 PM -25.8060 135.1560 329° Northwest 403 464 34,000  Level FlightAware ADS-B
Wed 09:20:56 PM -25.7470 135.1180 330° Northwest 404 465 34,000  Level FlightAware ADS-B
Wed 09:21:10 PM -25.7107 135.0944 330° Northwest 26,500  Descending Aus ATC (Calculated)
Wed 09:21:28 PM -25.6960 135.0850 330° Northwest 403 464 34,000 8,036 Climbing FlightAware ADS-B
Wed 09:22:06 PM -25.6380 135.0470 329° Northwest 404 465 34,000  Level FlightAware ADS-B
Wed 09:22:38 PM -25.5860 135.0140 330° Northwest 405 466 34,000  Level FlightAware ADS-B
Wed 09:22:59 PM -25.5484 134.9896 329° Northwest 26,500  Descending Aus ATC (Calculated)
Wed 09:23:10 PM -25.5340 134.9800 329° Northwest 405 466 34,000 8,235 Climbing FlightAware ADS-B
Wed 09:23:50 PM -25.4660 134.9360 329° Northwest 404 465 33,500 -868 Descending FlightAware ADS-B
Wed 09:24:10 PM -25.4401 134.9198 329° Northwest 26,500 -1,000 Descending Aus ATC (Calculated)
Wed 09:24:26 PM -25.4070 134.8980 329° Northwest 410 472 32,900 7,250 Climbing FlightAware ADS-B
Wed 09:24:58 PM -25.3550 134.8650 330° Northwest 412 474 32,300 -1,147 Descending FlightAware ADS-B
Wed 09:25:34 PM -25.2980 134.8280 330° Northwest 413 475 31,600 -1,652 Descending FlightAware ADS-B
Wed 09:26:07 PM -25.2410 134.7920 330° Northwest 408 470 30,400 -2,143 Descending FlightAware ADS-B
Wed 09:26:23 PM -25.2236 134.7807 330° Northwest 26,500 -2,108 Descending Aus ATC (Calculated)
Wed 09:26:44 PM -25.1810 134.7540 330° Northwest 402 463 29,100 1,527 Climbing FlightAware ADS-B
Wed 09:27:09 PM -25.1152 134.7113 150° Southeast 26,500 -2,118 Descending Aus ATC (Calculated)
Wed 09:27:18 PM -25.1270 134.7190 330° Northwest 396 456 27,900 267 Climbing FlightAware ADS-B
Wed 09:27:54 PM -25.0710 134.6830 330° Northwest 390 449 26,700 -1,971 Descending FlightAware ADS-B
Wed 09:28:28 PM -25.0170 134.6480 330° Northwest 385 443 25,600 -1,971 Descending FlightAware ADS-B
Wed 09:29:04 PM -24.9620 134.6130 330° Northwest 381 438 24,400 -1,890 Descending FlightAware ADS-B
Wed 09:29:14 PM -24.9527 134.6075 330° Northwest 2,300 -1,784 Descending Aus ATC (Calculated)
Wed 09:29:41 PM -24.9070 134.5790 330° Northwest 376 433 23,300 18,952 Climbing FlightAware ADS-B
Wed 09:30:17 PM -24.8530 134.5440 330° Northwest 370 426 22,200 -1,881 Descending FlightAware ADS-B
Wed 09:30:23 PM -24.8079 134.5156 333° Northwest 2,300 -1,935 Descending Aus ATC (Calculated)
Wed 09:30:48 PM -24.8050 134.5140 330° Northwest 375 432 21,200 17,410 Climbing FlightAware ADS-B
Wed 09:31:24 PM -24.7500 134.4790 330° Northwest 383 441 20,000 -1,859 Descending FlightAware ADS-B
Wed 09:31:59 PM -24.6970 134.4450 330° Northwest 378 435 19,000 -1,800 Descending FlightAware ADS-B
Wed 09:32:13 PM -24.6630 134.4240 330° Northwest 2,300 -1,886 Descending Aus ATC (Calculated)
Wed 09:32:32 PM -24.6630 134.4240 330° Northwest 2,300 44,571 Level Aus ATC (Calculated)
Wed 09:32:34 PM -24.6440 134.4120 330° Northwest 370 426 17,900 22,895 Climbing FlightAware ADS-B
Wed 09:33:10 PM -24.5920 134.3790 330° Northwest 367 422 16,800 -1,808 Descending FlightAware ADS-B
Wed 09:33:23 PM -24.5906 134.3782 330° Northwest 2,300 -1,784 Descending Aus ATC (Calculated)
Wed 09:33:47 PM -24.5360 134.3440 330° Northwest 363 418 15,700 13,636 Climbing FlightAware ADS-B
Wed 09:34:18 PM -24.4930 134.3160 329° Northwest 358 412 14,800 -1,826 Descending FlightAware ADS-B
Wed 09:34:56 PM -24.4360 134.2810 331° Northwest 353 406 13,600 -1,800 Descending FlightAware ADS-B
Wed 09:35:28 PM -24.3920 134.2530 330° Northwest 345 397 12,700 -1,629 Descending FlightAware ADS-B
Wed 09:35:29 PM -24.3731 134.2412 330° Northwest 2,300 -1,579 Descending Aus ATC (Calculated)
Wed 09:36:06 PM -24.3400 134.2200 330° Northwest 334 384 11,700 7,304 Climbing FlightAware ADS-B
Wed 09:36:18 PM -24.3006 134.1957 326° Northwest 2,300 -1,875 Descending Aus ATC (Calculated)
Wed 09:36:38 PM -24.2970 134.1930 330° Northwest 340 391 10,700 8,464 Climbing FlightAware ADS-B
Wed 09:37:14 PM -24.2490 134.1620 330° Northwest 318 366 10,200 -900 Descending FlightAware ADS-B
Wed 09:37:38 PM -24.2190 134.1440 330° Northwest 307 353 9,800 -1,364 Descending FlightAware ADS-B
Wed 09:37:58 PM -24.1950 134.1290 330° Northwest 308 354 9,200 -1,500 Descending FlightAware ADS-B
Wed 09:38:18 PM -24.1700 134.1130 330° Northwest 303 349 8,800 -1,200 Descending FlightAware ADS-B
Wed 09:38:38 PM -24.1450 134.0980 331° Northwest 299 344 8,400 -1,364 Descending FlightAware ADS-B
Wed 09:39:02 PM -24.1170 134.0800 330° Northwest 298 343 7,800 -1,364 Descending FlightAware ADS-B
Wed 09:39:18 PM -24.0105 134.0140 151° Southeast 2,300 -1,200 Descending Aus ATC (Calculated)
Wed 09:39:22 PM -24.0920 134.0640 330° Northwest 303 349 7,400 18,375 Climbing FlightAware ADS-B
Wed 09:39:34 PM -24.0790 134.0550 330° Northwest 300 345 7,200 -1,125 Descending FlightAware ADS-B
Wed 09:39:54 PM -24.0570 134.0360 322° Northwest 294 338 6,800 -1,227 Descending FlightAware ADS-B
Wed 09:40:18 PM -24.0330 134.0130 319° Northwest 286 329 6,300 -1,364 Descending FlightAware ADS-B
Wed 09:40:38 PM -24.0130 133.9950 321° Northwest 282 325 5,800 -1,500 Descending FlightAware ADS-B
Wed 09:40:58 PM -23.9920 133.9760 320° Northwest 281 323 5,300 -1,610 Descending FlightAware ADS-B
Wed 09:41:19 PM -23.9710 133.9580 322° Northwest 282 325 4,700 -1,500 Descending FlightAware ADS-B
Wed 09:41:42 PM -23.9480 133.9370 320° Northwest 279 321 4,200 -1,116 Descending FlightAware ADS-B
Wed 09:42:02 PM -23.9280 133.9190 321° Northwest 280 322 3,900 -938 Descending FlightAware ADS-B
Wed 09:42:14 PM -23.9160 133.9080 320° Northwest 284 327 3,700 -1,000 Descending FlightAware ADS-B
Wed 09:42:17 PM -23.8005 133.8896 182° South 1,800 -1,000 Descending Aus ATC (Calculated)
Wed 09:42:38 PM -23.8910 133.8860 321° Northwest 280 322 3,300 1,857 Climbing FlightAware ADS-B
Wed 09:42:59 PM -23.8720 133.8690 321° Northwest 270 311 3,100 -450 Descending FlightAware ADS-B
Wed 09:43:18 PM -23.8530 133.8520 321° Northwest 248 285 3,000 -150 Descending FlightAware ADS-B
Wed 09:43:39 PM -23.8350 133.8360 321° Northwest 227 261 3,000  Level FlightAware ADS-B
Wed 09:43:56 PM -23.8230 133.8250 320° Northwest 212 244 3,000  Level FlightAware ADS-B
Wed 09:44:14 PM -23.8090 133.8130 322° Northwest 190 219 3,000  Level FlightAware ADS-B
Wed 09:44:22 PM -23.8030 133.8120 351° North 184 212 3,000 -400 Level FlightAware ADS-B
Wed 09:44:44 PM -23.7880 133.8180 20° North 159 183 2,800 -286 Descending FlightAware ADS-B
Wed 09:45:04 PM -23.7770 133.8300 45° Northeast 149 171 2,800 -214 Level FlightAware ADS-B
Wed 09:45:12 PM -23.7740 133.8350 57° Northeast 146 168 2,700 -375 Descending FlightAware ADS-B
Wed 09:45:20 PM -23.7730 133.8390 75° East 142 163 2,700 -643 Level FlightAware ADS-B
Wed 09:45:40 PM -23.7790 133.8520 117° Southeast 134 154 2,400 -811 Descending FlightAware ADS-B
Wed 09:45:57 PM -23.7840 133.8620 119° Southeast 136 157 2,200 -769 Descending FlightAware ADS-B
Wed 09:46:19 PM -23.7910 133.8760 119° Southeast 134 154 1,900 -769 Descending FlightAware ADS-B
Wed 09:46:36 PM -23.7960 133.8850 121° Southeast 136 157 1,700 -632 Descending FlightAware ADS-B
Wed 09:46:57 PM -23.8030 133.8970 123° Southeast 139 160 1,500 -571 Descending FlightAware ADS-B
Wed 09:47:09 PM -23.8070 133.9040 122° Southeast 100 115 -7,500 Descending FlightAware ADS-B

Login

Don't have an account? Register now (free) for customized features, flight alerts, and more!